createdAt,value
2022-12-12T03:44:08.356Z,91.43
2022-12-12T03:45:08.346Z,91.32
2022-12-12T03:46:08.373Z,91.32
2022-12-12T03:47:08.317Z,91.22
2022-12-12T03:48:08.323Z,91.32
2022-12-12T03:55:08.257Z,91.54
2022-12-12T03:56:08.222Z,91.54
2022-12-12T03:57:08.211Z,91.54
2022-12-12T03:58:08.194Z,91.54
2022-12-12T03:59:08.189Z,91.64
2022-12-12T04:00:08.178Z,91.64
2022-12-12T04:01:08.274Z,91.64
2022-12-12T04:02:08.212Z,91.64
2022-12-12T04:03:08.138Z,91.54
2022-12-12T04:04:08.126Z,91.54
2022-12-12T04:05:08.120Z,91.43
2022-12-12T04:06:08.107Z,91.43
2022-12-12T04:07:08.092Z,91.43
2022-12-12T04:08:08.144Z,91.32
2022-12-12T04:09:08.072Z,91.43
2022-12-12T04:10:08.061Z,91.39
2022-12-12T04:11:08.136Z,91.39
2022-12-12T04:12:08.031Z,91.39
2022-12-12T04:13:08.027Z,91.29
2022-12-12T04:14:08.025Z,91.29
2022-12-12T04:15:07.999Z,91.18
2022-12-12T04:16:08.050Z,91.18
2022-12-12T04:17:07.973Z,91.22
2022-12-12T04:18:07.973Z,91.32
2022-12-12T04:19:07.952Z,91.32
2022-12-12T04:20:08.010Z,91.32
2022-12-12T04:21:07.933Z,91.43
2022-12-12T04:22:07.916Z,91.43
2022-12-12T04:23:07.906Z,91.43
2022-12-12T04:24:07.899Z,91.54
2022-12-12T04:25:07.888Z,91.43
2022-12-12T04:26:07.878Z,91.54
2022-12-12T04:27:07.907Z,91.54
2022-12-12T04:28:07.856Z,91.43
2022-12-12T04:29:07.857Z,91.43
2022-12-12T04:30:07.832Z,91.54
2022-12-12T04:31:07.815Z,91.54
2022-12-12T04:32:07.952Z,91.54
2022-12-12T04:33:07.794Z,91.64
2022-12-12T04:34:07.787Z,91.64
2022-12-12T04:35:07.776Z,91.74
2022-12-12T04:36:07.765Z,91.85
2022-12-12T04:37:07.758Z,91.85
2022-12-12T04:38:07.744Z,91.85
2022-12-12T04:39:07.728Z,91.85
2022-12-12T04:40:07.716Z,91.85
2022-12-12T04:41:07.707Z,91.85
2022-12-12T04:42:07.695Z,91.85
2022-12-12T04:43:07.713Z,91.85
2022-12-12T04:44:07.673Z,91.85
2022-12-12T04:45:07.661Z,91.95
2022-12-12T04:46:07.735Z,91.95
2022-12-12T04:47:07.639Z,91.80
2022-12-12T04:48:07.634Z,91.70
2022-12-12T04:49:07.608Z,91.80
2022-12-12T04:50:07.599Z,91.70
2022-12-12T04:51:07.586Z,91.60
2022-12-12T04:52:07.580Z,91.60
2022-12-12T04:53:07.572Z,91.49
2022-12-12T04:54:07.553Z,91.54
2022-12-12T04:55:07.546Z,91.54
2022-12-12T04:56:07.537Z,91.64
2022-12-12T04:57:07.519Z,91.60
2022-12-12T04:58:07.505Z,91.60
2022-12-12T04:59:07.534Z,91.49
2022-12-12T05:00:07.483Z,91.49
2022-12-12T05:01:07.578Z,91.49
2022-12-12T05:02:07.534Z,91.49
2022-12-12T05:03:07.462Z,91.60
2022-12-12T05:04:07.446Z,91.49
2022-12-12T05:05:07.426Z,91.49
2022-12-12T05:06:07.422Z,91.49
2022-12-12T05:07:07.410Z,91.39
2022-12-12T05:08:07.494Z,91.39
2022-12-12T05:09:07.390Z,91.29
2022-12-12T05:10:07.370Z,91.24
2022-12-12T05:11:07.367Z,91.14
2022-12-12T05:12:07.353Z,91.04
2022-12-12T05:13:07.335Z,90.97
2022-12-12T05:14:07.328Z,90.86
2022-12-12T05:15:07.351Z,90.86
2022-12-12T05:16:07.309Z,90.86
2022-12-12T05:17:07.289Z,90.86
2022-12-12T05:18:07.278Z,90.86
2022-12-12T05:19:07.278Z,90.86
2022-12-12T05:20:07.259Z,90.86
2022-12-12T05:21:07.243Z,90.72
2022-12-12T05:22:07.242Z,90.72
2022-12-12T05:23:07.220Z,90.61
2022-12-12T05:24:07.219Z,90.51
2022-12-12T05:25:07.214Z,90.51
2022-12-12T05:26:07.196Z,90.41
2022-12-12T05:27:07.189Z,90.35
2022-12-12T05:28:07.168Z,90.35
2022-12-12T05:29:07.867Z,90.35
2022-12-12T05:30:07.148Z,90.35
2022-12-12T05:31:07.219Z,90.35
2022-12-12T05:32:07.127Z,90.24
2022-12-12T05:33:07.116Z,90.24
2022-12-12T05:34:07.099Z,90.24
2022-12-12T05:35:07.093Z,90.24
2022-12-12T05:36:07.081Z,90.24
2022-12-12T05:37:07.066Z,90.24
2022-12-12T05:38:07.049Z,90.24
2022-12-12T05:39:07.053Z,90.14
2022-12-12T05:40:07.033Z,90.24
2022-12-12T05:41:07.015Z,90.24
2022-12-12T05:42:07.003Z,90.10
2022-12-12T05:43:06.993Z,90.10
2022-12-12T05:44:06.983Z,89.99
2022-12-12T05:45:06.977Z,90.03
2022-12-12T05:46:07.047Z,90.10
2022-12-12T05:47:06.980Z,89.99
2022-12-12T05:48:06.936Z,89.89
2022-12-12T05:49:06.937Z,89.89
2022-12-12T05:50:06.913Z,89.89
2022-12-12T05:51:06.907Z,89.78
2022-12-12T05:52:06.896Z,89.78
2022-12-12T05:53:06.885Z,89.67
2022-12-12T05:54:06.874Z,89.57
2022-12-12T05:55:06.875Z,89.57
2022-12-12T05:56:06.851Z,89.36
2022-12-12T05:57:06.840Z,89.36
2022-12-12T05:58:06.828Z,89.26
2022-12-12T05:59:06.813Z,89.26
2022-12-12T06:00:06.811Z,89.26
2022-12-12T06:01:06.788Z,89.05
2022-12-12T06:02:06.818Z,89.05
2022-12-12T06:03:06.798Z,89.05
2022-12-12T06:04:06.810Z,89.05
2022-12-12T06:05:06.743Z,89.05
2022-12-12T06:06:06.736Z,88.90
2022-12-12T06:07:06.721Z,88.84
2022-12-12T06:08:06.739Z,88.80
2022-12-12T06:09:06.702Z,88.80
2022-12-12T06:10:06.686Z,88.80
2022-12-12T06:11:06.685Z,88.70
2022-12-12T06:12:06.670Z,88.59
2022-12-12T06:13:06.651Z,88.49
2022-12-12T06:14:06.639Z,88.49
2022-12-12T06:15:06.635Z,88.49
2022-12-12T06:16:06.671Z,88.49
2022-12-12T06:17:06.624Z,88.49
2022-12-12T06:18:06.600Z,88.39
2022-12-12T06:19:06.608Z,88.28
2022-12-12T06:20:06.579Z,88.28
2022-12-12T06:21:06.565Z,88.18
2022-12-12T06:22:06.549Z,88.18
2022-12-12T06:23:06.546Z,88.07
2022-12-12T06:24:06.538Z,87.96
2022-12-12T06:25:06.524Z,87.86
2022-12-12T06:26:06.505Z,87.76
2022-12-12T06:27:06.508Z,87.76
2022-12-12T06:28:06.490Z,87.76
2022-12-12T06:29:06.474Z,87.65
2022-12-12T06:30:06.463Z,87.65
2022-12-12T06:31:11.285Z,87.65
2022-12-12T06:32:06.436Z,87.55
2022-12-12T06:33:06.432Z,87.55
2022-12-12T06:34:06.410Z,87.55
2022-12-12T06:35:06.435Z,87.65
2022-12-12T06:36:06.387Z,87.65
2022-12-12T06:37:06.376Z,87.55
2022-12-12T06:38:06.373Z,87.45
2022-12-12T06:39:06.360Z,87.45
2022-12-12T06:40:06.351Z,87.45
2022-12-12T06:41:06.337Z,87.55
2022-12-12T06:42:06.326Z,87.55
2022-12-12T06:43:06.316Z,87.65
2022-12-12T06:44:06.302Z,87.65
2022-12-12T06:45:08.290Z,87.76
2022-12-12T06:46:08.338Z,87.65
2022-12-12T06:47:06.276Z,87.65
2022-12-12T06:48:06.257Z,87.65
2022-12-12T06:49:06.254Z,87.65
2022-12-12T06:50:06.227Z,87.65
2022-12-12T06:51:06.372Z,87.65
2022-12-12T06:52:06.205Z,87.76
2022-12-12T06:53:06.196Z,87.76
2022-12-12T06:54:06.189Z,87.76
2022-12-12T06:55:06.179Z,87.76
2022-12-12T06:56:06.217Z,87.76
2022-12-12T06:57:06.154Z,87.86
2022-12-12T06:58:06.145Z,87.86
2022-12-12T06:59:06.126Z,87.76
2022-12-12T07:00:08.119Z,87.76
2022-12-12T07:01:06.189Z,87.76
2022-12-12T07:02:06.091Z,87.76
2022-12-12T07:03:06.145Z,87.76
2022-12-12T07:04:08.073Z,87.76
2022-12-12T07:05:08.065Z,87.65
2022-12-12T07:06:06.054Z,87.55
2022-12-12T07:07:06.061Z,87.55
2022-12-12T07:08:06.077Z,87.45
2022-12-12T07:09:08.018Z,87.45
2022-12-12T07:10:06.008Z,87.40
2022-12-12T07:11:05.989Z,87.34
2022-12-12T07:12:05.976Z,87.13
2022-12-12T07:13:07.969Z,87.24
2022-12-12T07:14:05.956Z,87.34
2022-12-12T07:15:05.948Z,87.34
2022-12-12T07:16:06.011Z,87.34
2022-12-12T07:17:05.970Z,87.34
2022-12-12T07:18:05.916Z,87.24
2022-12-12T07:19:05.903Z,87.24
2022-12-12T07:20:05.893Z,87.20
2022-12-12T07:21:07.883Z,87.09
2022-12-12T07:22:10.382Z,86.99
2022-12-12T07:23:05.859Z,86.99
2022-12-12T07:24:05.854Z,86.88
2022-12-12T07:25:05.836Z,86.88
2022-12-12T07:26:05.820Z,86.78
2022-12-12T07:27:07.805Z,86.78
2022-12-12T07:28:07.799Z,86.68
2022-12-12T07:29:07.783Z,86.57
2022-12-12T07:30:05.776Z,86.57
2022-12-12T07:31:05.781Z,86.57
2022-12-12T07:32:05.758Z,86.68
2022-12-12T07:33:05.739Z,86.57
2022-12-12T07:34:05.735Z,86.47
2022-12-12T07:35:05.726Z,86.37
2022-12-12T07:36:05.730Z,86.37
2022-12-12T07:37:05.705Z,86.26
2022-12-12T07:38:05.746Z,86.26
2022-12-12T07:39:05.678Z,86.05
2022-12-12T07:40:07.662Z,86.05
2022-12-12T07:41:05.654Z,86.05
2022-12-12T07:42:05.636Z,85.95
2022-12-12T07:43:05.632Z,85.95
2022-12-12T07:44:05.630Z,86.05
2022-12-12T07:45:07.601Z,86.05
2022-12-12T07:46:05.735Z,86.16
2022-12-12T07:47:05.596Z,86.05
2022-12-12T07:48:05.575Z,85.84
2022-12-12T07:49:05.566Z,85.74
2022-12-12T07:50:05.553Z,85.63
2022-12-12T07:51:05.535Z,85.63
2022-12-12T07:52:05.532Z,85.43
2022-12-12T07:53:05.521Z,85.15
2022-12-12T07:54:05.547Z,85.47
2022-12-12T07:55:05.490Z,85.68
2022-12-12T07:56:05.477Z,85.88
2022-12-12T07:57:05.475Z,85.99
2022-12-12T07:58:05.463Z,86.09
2022-12-12T07:59:05.452Z,86.09
2022-12-12T08:00:05.447Z,86.09
2022-12-12T08:01:09.831Z,85.95
2022-12-12T08:02:05.480Z,85.95
2022-12-12T08:03:05.407Z,85.95
2022-12-12T08:04:05.445Z,85.84
2022-12-12T08:05:05.433Z,85.84
2022-12-12T08:06:05.367Z,85.74
2022-12-12T08:07:08.418Z,85.74
2022-12-12T08:08:05.406Z,85.53
2022-12-12T08:09:05.483Z,85.43
2022-12-12T08:10:05.402Z,85.32
2022-12-12T08:11:05.412Z,85.22
2022-12-12T08:12:05.355Z,85.18
2022-12-12T08:13:05.295Z,85.08
2022-12-12T08:14:11.053Z,85.08
2022-12-12T08:15:05.382Z,84.86
2022-12-12T08:16:05.315Z,84.66
2022-12-12T08:17:05.247Z,84.55
2022-12-12T08:18:05.239Z,84.45
2022-12-12T08:19:05.230Z,84.14
2022-12-12T08:20:05.365Z,84.03
2022-12-12T08:21:05.209Z,84.14
2022-12-12T08:22:05.243Z,84.14
2022-12-12T08:23:05.180Z,84.14
2022-12-12T08:24:05.165Z,84.14
2022-12-12T08:25:05.155Z,84.03
2022-12-12T08:26:05.175Z,83.93
2022-12-12T08:27:05.144Z,83.83
2022-12-12T08:28:05.177Z,83.83
2022-12-12T08:29:05.157Z,83.72
2022-12-12T08:30:05.093Z,83.58
2022-12-12T08:31:05.165Z,83.37
2022-12-12T08:32:05.074Z,83.16
2022-12-12T08:33:08.168Z,83.09
2022-12-12T08:34:05.052Z,82.99
2022-12-12T08:35:05.043Z,82.78
2022-12-12T08:36:05.032Z,82.89
2022-12-12T08:37:05.019Z,82.89
2022-12-12T08:38:05.007Z,82.99
2022-12-12T08:39:04.991Z,83.31
2022-12-12T08:40:04.981Z,83.31
2022-12-12T08:41:04.978Z,82.99
2022-12-12T08:42:04.992Z,82.78
2022-12-12T08:43:04.947Z,82.68
2022-12-12T08:44:04.934Z,82.68
2022-12-12T08:45:04.930Z,82.78
2022-12-12T08:46:04.916Z,82.75
2022-12-12T08:47:04.957Z,82.75
2022-12-12T08:48:04.891Z,82.54
2022-12-12T08:49:04.880Z,82.33
2022-12-12T08:50:04.868Z,82.23
2022-12-12T08:51:04.862Z,82.12
2022-12-12T08:52:04.847Z,82.12
2022-12-12T08:53:04.840Z,82.12
2022-12-12T08:54:04.833Z,81.81
2022-12-12T08:55:04.811Z,81.70
2022-12-12T08:56:04.807Z,81.60
2022-12-12T08:57:04.795Z,81.60
2022-12-12T08:58:04.830Z,81.60
2022-12-12T08:59:04.774Z,81.29
2022-12-12T09:00:04.759Z,81.15
2022-12-12T09:01:04.756Z,81.04
2022-12-12T09:02:04.829Z,80.94
2022-12-12T09:03:04.757Z,80.94
2022-12-12T09:04:04.710Z,80.84
2022-12-12T09:05:04.705Z,80.70
2022-12-12T09:06:04.694Z,80.38
2022-12-12T09:07:08.444Z,79.87
2022-12-12T09:08:04.703Z,79.48
2022-12-12T09:09:04.661Z,79.58
2022-12-12T09:10:04.661Z,79.58
2022-12-12T09:11:04.634Z,79.69
2022-12-12T09:12:04.623Z,79.65
2022-12-12T09:13:04.622Z,79.65
2022-12-12T09:14:04.628Z,79.44
2022-12-12T09:15:04.597Z,79.27
2022-12-12T09:16:04.641Z,79.41
2022-12-12T09:17:04.575Z,79.73
2022-12-12T09:18:04.561Z,80.04
2022-12-12T09:19:04.544Z,80.46
2022-12-12T09:20:04.540Z,80.46
2022-12-12T09:21:04.522Z,80.56
2022-12-12T09:22:04.510Z,80.42
2022-12-12T09:23:04.507Z,80.21
2022-12-12T09:24:04.503Z,80.01
2022-12-12T09:25:04.484Z,80.01
2022-12-12T09:26:04.476Z,79.97
2022-12-12T09:27:04.457Z,79.55
2022-12-12T09:28:04.458Z,79.34
2022-12-12T09:29:04.433Z,78.93
2022-12-12T09:30:04.449Z,78.93
2022-12-12T09:31:04.461Z,78.79
2022-12-12T09:32:04.408Z,78.68
2022-12-12T09:33:04.395Z,78.47
2022-12-12T09:34:04.382Z,78.37
2022-12-12T09:35:04.366Z,77.96
2022-12-12T09:36:04.363Z,77.75
2022-12-12T09:37:04.353Z,77.75
2022-12-12T09:38:08.168Z,77.75
2022-12-12T09:39:04.328Z,77.40
2022-12-12T09:40:04.316Z,77.09
2022-12-12T09:41:04.301Z,76.88
2022-12-12T09:42:04.288Z,76.81
2022-12-12T09:43:04.283Z,76.81
2022-12-12T09:44:04.270Z,76.92
2022-12-12T09:45:04.261Z,76.92
2022-12-12T09:46:04.385Z,76.88
2022-12-12T09:47:04.263Z,76.78
2022-12-12T09:48:04.227Z,76.67
2022-12-12T09:49:04.218Z,76.47
2022-12-12T09:50:04.204Z,76.08
2022-12-12T09:51:04.198Z,76.29
2022-12-12T09:52:04.183Z,76.61
2022-12-12T09:53:04.173Z,76.88
2022-12-12T09:54:04.157Z,76.29
2022-12-12T09:55:04.149Z,75.53
2022-12-12T09:56:04.134Z,74.67
2022-12-12T09:57:04.120Z,73.59
2022-12-12T09:58:04.110Z,72.94
2022-12-12T09:59:04.099Z,72.18
2022-12-12T10:00:04.098Z,71.70
2022-12-12T10:01:04.121Z,70.84
2022-12-12T10:02:04.147Z,69.05
2022-12-12T10:03:04.066Z,68.50
2022-12-12T10:04:04.042Z,67.50
2022-12-12T10:05:04.039Z,67.88
2022-12-12T10:06:35.485Z,67.20
2022-12-12T10:07:04.009Z,66.65
2022-12-12T10:08:04.035Z,65.77
2022-12-12T10:09:03.989Z,64.60
2022-12-12T10:10:03.979Z,63.64
2022-12-12T10:11:04.018Z,62.38
2022-12-12T10:12:08.055Z,62.35
2022-12-12T10:13:04.003Z,61.32
2022-12-12T10:14:03.995Z,60.71
2022-12-12T10:15:03.937Z,60.78
2022-12-12T10:16:03.963Z,60.06
2022-12-12T10:17:03.953Z,60.36
2022-12-12T10:18:03.967Z,60.06
2022-12-12T10:19:03.930Z,60.24
2022-12-12T10:20:03.909Z,59.90
2022-12-12T10:21:03.897Z,58.82
2022-12-12T10:22:03.886Z,58.12
2022-12-12T10:23:03.877Z,57.87
2022-12-12T10:24:03.870Z,58.85
2022-12-12T10:25:03.864Z,59.64
2022-12-12T10:26:03.848Z,59.21
2022-12-12T10:27:03.843Z,58.72
2022-12-12T10:28:03.824Z,58.54
2022-12-12T10:29:03.814Z,59.19
2022-12-12T10:30:03.795Z,59.55
2022-12-12T10:31:03.812Z,60.61
2022-12-12T10:32:03.879Z,60.82
2022-12-12T10:33:03.769Z,61.61
2022-12-12T10:34:03.788Z,60.87
2022-12-12T10:35:03.751Z,60.04
2022-12-12T10:36:03.728Z,60.32
2022-12-12T10:37:03.737Z,59.44
2022-12-12T10:38:03.704Z,58.62
2022-12-12T10:39:03.698Z,58.75
2022-12-12T10:40:03.687Z,58.69
2022-12-12T10:41:03.672Z,57.95
2022-12-12T10:42:03.660Z,57.20
2022-12-12T10:43:03.604Z,57.00
2022-12-12T10:44:03.635Z,56.76
2022-12-12T10:45:03.676Z,56.07
2022-12-12T10:46:03.793Z,56.51
2022-12-12T10:47:03.644Z,56.87
2022-12-12T10:48:03.551Z,58.03
2022-12-12T10:49:03.539Z,58.16
2022-12-12T10:50:06.392Z,58.67
2022-12-12T10:51:03.513Z,59.16
2022-12-12T10:52:03.502Z,58.31
2022-12-12T10:53:03.491Z,58.28
2022-12-12T10:54:03.481Z,57.92
2022-12-12T10:55:03.469Z,56.76
2022-12-12T10:56:03.453Z,56.33
2022-12-12T10:57:03.446Z,55.46
2022-12-12T10:58:03.490Z,53.99
2022-12-12T10:59:03.420Z,53.90
2022-12-12T11:00:03.412Z,53.77
2022-12-12T11:01:03.511Z,53.30
2022-12-12T11:02:11.176Z,51.85
2022-12-12T11:03:03.494Z,51.31
2022-12-12T11:04:03.373Z,50.11
2022-12-12T11:05:03.352Z,50.54
2022-12-12T11:06:03.375Z,52.20
2022-12-12T11:07:03.344Z,54.02
2022-12-12T11:08:03.571Z,55.10
2022-12-12T11:09:03.313Z,56.77
2022-12-12T11:10:03.301Z,56.61
2022-12-12T11:11:03.293Z,55.56
2022-12-12T11:12:03.280Z,54.30
2022-12-12T11:13:03.272Z,54.55
2022-12-12T11:14:03.259Z,55.27
2022-12-12T11:15:03.250Z,55.89
2022-12-12T11:16:03.309Z,56.64
2022-12-12T11:17:03.361Z,56.54
2022-12-12T11:18:06.283Z,56.35
2022-12-12T11:19:03.205Z,56.56
2022-12-12T11:20:03.193Z,56.95
2022-12-12T11:21:03.175Z,56.97
2022-12-12T11:22:03.192Z,57.28
2022-12-12T11:23:03.162Z,57.49
2022-12-12T11:24:03.140Z,57.77
2022-12-12T11:25:03.135Z,57.33
2022-12-12T11:26:03.117Z,56.71
2022-12-12T11:27:03.116Z,57.10
2022-12-12T11:28:06.568Z,56.66
2022-12-12T11:29:03.088Z,55.74
2022-12-12T11:30:03.072Z,55.63
2022-12-12T11:31:03.066Z,55.71
2022-12-12T11:32:03.072Z,55.10
2022-12-12T11:33:03.042Z,54.56
2022-12-12T11:34:03.038Z,54.40
2022-12-12T11:35:03.043Z,53.77
2022-12-12T11:36:03.014Z,52.61
2022-12-12T11:37:02.989Z,51.87
2022-12-12T11:38:03.012Z,51.97
2022-12-12T11:39:02.971Z,51.87
2022-12-12T11:40:02.982Z,51.41
2022-12-12T11:41:02.945Z,52.77
2022-12-12T11:42:02.937Z,52.74
2022-12-12T11:43:02.930Z,52.33
2022-12-12T11:44:02.906Z,52.66
2022-12-12T11:45:02.902Z,53.20
2022-12-12T11:46:02.984Z,54.10
2022-12-12T11:47:02.874Z,55.07
2022-12-12T11:48:02.868Z,56.48
2022-12-12T11:49:02.859Z,58.68
2022-12-12T11:50:07.681Z,60.69
2022-12-12T11:51:02.831Z,61.81
2022-12-12T11:52:02.815Z,63.94
2022-12-12T11:53:02.809Z,65.24
2022-12-12T11:54:02.833Z,66.10
2022-12-12T11:55:02.798Z,67.16
2022-12-12T11:56:02.773Z,67.24
2022-12-12T11:57:02.757Z,67.10
2022-12-12T11:58:03.983Z,66.97
2022-12-12T11:59:02.741Z,65.63
2022-12-12T12:00:02.731Z,65.42
2022-12-12T12:01:02.711Z,65.31
2022-12-12T12:02:02.700Z,65.52
2022-12-12T12:03:02.746Z,66.04
2022-12-12T12:04:02.734Z,65.52
2022-12-12T12:05:02.675Z,65.14
2022-12-12T12:06:02.656Z,66.00
2022-12-12T12:07:02.642Z,66.51
2022-12-12T12:08:02.695Z,66.82
2022-12-12T12:09:02.627Z,66.41
2022-12-12T12:10:02.645Z,66.38
2022-12-12T12:11:02.611Z,66.48
2022-12-12T12:12:02.587Z,66.38
2022-12-12T12:13:02.576Z,66.58
2022-12-12T12:14:02.573Z,66.28
2022-12-12T12:15:02.566Z,65.86
2022-12-12T12:16:02.549Z,65.72
2022-12-12T12:17:02.635Z,66.37
2022-12-12T12:18:02.532Z,66.78
2022-12-12T12:19:02.517Z,67.13
2022-12-12T12:20:02.509Z,67.68
2022-12-12T12:21:02.500Z,68.61
2022-12-12T12:22:02.495Z,68.95
2022-12-12T12:23:02.472Z,69.58
2022-12-12T12:24:02.458Z,70.09
2022-12-12T12:25:02.446Z,69.99
2022-12-12T12:26:02.484Z,69.58
2022-12-12T12:27:02.430Z,69.75
2022-12-12T12:28:02.416Z,69.10
2022-12-12T12:29:02.398Z,67.92
2022-12-12T12:30:02.397Z,67.09
2022-12-12T12:31:02.451Z,66.95
2022-12-12T12:32:02.373Z,67.47
2022-12-12T12:33:02.361Z,67.44
2022-12-12T12:34:02.351Z,67.13
2022-12-12T12:35:02.347Z,66.92
2022-12-12T12:36:02.335Z,66.54
2022-12-12T12:37:02.314Z,66.64
2022-12-12T12:38:02.298Z,67.05
2022-12-12T12:39:02.291Z,66.88
2022-12-12T12:40:02.276Z,67.29
2022-12-12T12:41:02.272Z,67.40
2022-12-12T12:42:02.290Z,66.98
2022-12-12T12:43:02.248Z,66.54
2022-12-12T12:44:02.230Z,66.54
2022-12-12T12:45:02.221Z,66.22
2022-12-12T12:46:02.265Z,66.22
2022-12-12T12:47:02.201Z,65.49
2022-12-12T12:48:07.228Z,65.28
2022-12-12T12:49:02.182Z,65.08
2022-12-12T12:50:02.168Z,65.08
2022-12-12T12:51:02.154Z,65.70
2022-12-12T12:52:02.146Z,65.80
2022-12-12T12:53:02.143Z,65.80
2022-12-12T12:54:02.119Z,65.49
2022-12-12T12:55:02.116Z,65.05
2022-12-12T12:56:02.105Z,64.97
2022-12-12T12:57:02.087Z,65.08
2022-12-12T12:58:02.103Z,65.18
2022-12-12T12:59:02.070Z,65.70
2022-12-12T13:00:02.055Z,65.57
2022-12-12T13:01:02.162Z,65.26
2022-12-12T13:02:02.042Z,65.16
2022-12-12T13:03:02.128Z,65.05
2022-12-12T13:04:02.011Z,65.16
2022-12-12T13:05:01.997Z,64.87
2022-12-12T13:06:01.996Z,65.08
2022-12-12T13:07:01.981Z,65.11
2022-12-12T13:08:02.021Z,65.52
2022-12-12T13:09:01.953Z,65.73
2022-12-12T13:10:01.947Z,65.83
2022-12-12T13:11:01.927Z,65.83
2022-12-12T13:12:01.924Z,65.31
2022-12-12T13:13:01.912Z,65.11
2022-12-12T13:14:01.932Z,65.42
2022-12-12T13:15:01.891Z,65.31
2022-12-12T13:16:01.940Z,65.11
2022-12-12T13:17:01.870Z,65.00
2022-12-12T13:18:01.862Z,64.80
2022-12-12T13:19:01.838Z,65.14
2022-12-12T13:20:01.838Z,65.66
2022-12-12T13:21:01.815Z,65.73
2022-12-12T13:22:01.829Z,65.76
2022-12-12T13:23:01.799Z,65.86
2022-12-12T13:24:01.792Z,65.97
2022-12-12T13:25:01.775Z,65.89
2022-12-12T13:26:01.773Z,66.63
2022-12-12T13:27:01.750Z,66.52
2022-12-12T13:28:01.735Z,67.04
2022-12-12T13:29:01.733Z,67.25
2022-12-12T13:30:01.759Z,67.15
2022-12-12T13:31:01.758Z,67.15
2022-12-12T13:32:01.700Z,67.15
2022-12-12T13:33:01.678Z,66.73
2022-12-12T13:34:01.672Z,67.04
2022-12-12T13:35:01.655Z,67.28
2022-12-12T13:36:01.653Z,67.49
2022-12-12T13:37:01.647Z,67.70
2022-12-12T13:38:01.628Z,68.11
2022-12-12T13:39:01.611Z,67.90
2022-12-12T13:40:01.609Z,67.80
2022-12-12T13:41:01.589Z,67.70
2022-12-12T13:42:01.578Z,67.80
2022-12-12T13:43:07.430Z,67.90
2022-12-12T13:44:01.558Z,67.83
2022-12-12T13:45:01.556Z,68.14
2022-12-12T13:46:01.580Z,68.24
2022-12-12T13:47:01.526Z,68.56
2022-12-12T13:48:01.509Z,68.42
2022-12-12T13:49:01.504Z,68.35
2022-12-12T13:50:01.490Z,68.32
2022-12-12T13:51:01.483Z,68.21
2022-12-12T13:52:01.466Z,68.21
2022-12-12T13:53:01.456Z,68.01
2022-12-12T13:54:01.449Z,68.01
2022-12-12T13:55:01.432Z,68.14
2022-12-12T13:56:01.421Z,68.35
2022-12-12T13:57:01.411Z,68.66
2022-12-12T13:58:01.402Z,68.76
2022-12-12T13:59:01.394Z,69.18
2022-12-12T14:00:01.371Z,69.26
2022-12-12T14:01:01.382Z,69.18
2022-12-12T14:02:01.575Z,69.18
2022-12-12T14:03:02.238Z,69.50
2022-12-12T14:04:01.325Z,69.26
2022-12-12T14:05:01.313Z,69.15
2022-12-12T14:06:01.309Z,68.42
2022-12-12T14:07:01.289Z,68.04
2022-12-12T14:08:01.305Z,68.76
2022-12-12T14:09:01.276Z,68.73
2022-12-12T14:10:01.261Z,68.14
2022-12-12T14:11:01.251Z,67.83
2022-12-12T14:12:01.240Z,68.24
2022-12-12T14:13:01.229Z,68.59
2022-12-12T14:14:01.214Z,68.59
2022-12-12T14:15:01.207Z,68.80
2022-12-12T14:16:01.293Z,69.35
2022-12-12T14:17:01.181Z,69.87
2022-12-12T14:18:01.189Z,69.98
2022-12-12T14:19:01.161Z,70.08
2022-12-12T14:20:01.150Z,70.39
2022-12-12T14:21:03.131Z,70.70
2022-12-12T14:22:01.125Z,71.02
2022-12-12T14:23:01.109Z,70.81
2022-12-12T14:24:03.128Z,70.91
2022-12-12T14:25:01.087Z,71.02
2022-12-12T14:26:01.086Z,71.02
2022-12-12T14:27:01.062Z,71.12
2022-12-12T14:28:03.058Z,71.02
2022-12-12T14:29:01.041Z,70.91
2022-12-12T14:30:01.040Z,71.26
2022-12-12T14:31:01.076Z,71.57
2022-12-12T14:32:03.008Z,71.78
2022-12-12T14:33:03.123Z,71.96
2022-12-12T14:34:00.995Z,71.85
2022-12-12T14:35:00.980Z,71.75
2022-12-12T14:36:00.985Z,71.53
2022-12-12T14:37:02.957Z,71.53
2022-12-12T14:38:00.943Z,71.64
2022-12-12T14:39:00.930Z,71.75
2022-12-12T14:40:02.926Z,71.64
2022-12-12T14:41:02.914Z,71.75
2022-12-12T14:42:02.898Z,71.64
2022-12-12T14:43:19.776Z,71.85
2022-12-12T14:44:37.227Z,71.64
2022-12-12T14:45:00.863Z,71.96
2022-12-12T14:46:00.853Z,72.09
2022-12-12T14:47:00.848Z,72.09
2022-12-12T14:48:00.830Z,72.50
2022-12-12T14:49:00.841Z,72.50
2022-12-12T14:50:00.822Z,72.72
2022-12-12T14:51:02.801Z,73.03
2022-12-12T14:52:00.794Z,73.13
2022-12-12T14:53:00.787Z,73.24
2022-12-12T14:54:00.769Z,73.34
2022-12-12T14:55:00.762Z,73.86
2022-12-12T14:56:00.742Z,73.76
2022-12-12T14:57:00.738Z,73.65
2022-12-12T14:58:00.718Z,73.20
2022-12-12T14:59:00.715Z,72.93
2022-12-12T15:00:00.697Z,72.82
2022-12-12T15:01:00.685Z,73.20
2022-12-12T15:02:00.676Z,73.20
2022-12-12T15:03:00.870Z,73.10
2022-12-12T15:04:00.748Z,72.58
2022-12-12T15:05:05.160Z,72.68
2022-12-12T15:06:00.635Z,72.79
2022-12-12T15:07:00.621Z,72.58
2022-12-12T15:08:00.695Z,72.93
2022-12-12T15:09:00.608Z,73.13
2022-12-12T15:10:00.602Z,73.20
2022-12-12T15:11:00.573Z,73.03
2022-12-12T15:12:00.567Z,72.82
2022-12-12T15:13:00.555Z,72.93
2022-12-12T15:14:00.547Z,73.24
2022-12-12T15:15:00.543Z,73.13
2022-12-12T15:16:00.553Z,73.03
2022-12-12T15:17:02.504Z,72.93
2022-12-12T15:18:00.492Z,72.82
2022-12-12T15:19:00.485Z,72.96
2022-12-12T15:20:00.482Z,73.51
2022-12-12T15:21:00.590Z,74.04
2022-12-12T15:22:00.450Z,74.35
2022-12-12T15:23:00.437Z,74.56
2022-12-12T15:24:00.438Z,74.76
2022-12-12T15:25:00.426Z,74.87
2022-12-12T15:26:00.407Z,74.87
2022-12-12T15:27:02.391Z,74.87
2022-12-12T15:28:00.398Z,74.56
2022-12-12T15:29:00.385Z,74.52
2022-12-12T15:30:00.361Z,74.52
2022-12-12T15:31:00.432Z,74.31
2022-12-12T15:32:00.441Z,74.42
2022-12-12T15:33:00.330Z,74.52
2022-12-12T15:34:00.321Z,74.31
2022-12-12T15:35:00.303Z,74.21
2022-12-12T15:36:02.502Z,74.24
2022-12-12T15:37:00.401Z,74.45
2022-12-12T15:38:00.274Z,74.56
2022-12-12T15:39:00.260Z,74.87
2022-12-12T15:40:00.262Z,75.07
2022-12-12T15:41:00.241Z,75.18
2022-12-12T15:42:00.239Z,75.07
2022-12-12T15:43:00.222Z,74.94
2022-12-12T15:44:00.211Z,74.84
2022-12-12T15:45:00.202Z,74.73
2022-12-12T15:46:00.209Z,74.73
2022-12-12T15:47:00.261Z,74.52
2022-12-12T15:48:00.170Z,74.52
2022-12-12T15:49:02.147Z,74.42
2022-12-12T15:50:02.146Z,74.52
2022-12-12T15:51:00.129Z,74.42
2022-12-12T15:52:02.138Z,74.52
2022-12-12T15:53:00.123Z,74.42
2022-12-12T15:54:00.104Z,74.31
2022-12-12T15:55:00.105Z,74.21
2022-12-12T15:56:00.085Z,74.42
2022-12-12T15:57:00.059Z,74.42
2022-12-12T15:58:02.051Z,74.42
2022-12-12T15:59:00.049Z,74.21
2022-12-12T16:00:00.031Z,74.10
2022-12-12T16:01:00.060Z,74.21
2022-12-12T16:02:00.084Z,73.90
2022-12-12T16:03:00.000Z,74.00
2022-12-12T16:03:59.979Z,74.00
2022-12-12T16:04:59.976Z,73.79
2022-12-12T16:05:59.958Z,73.59
2022-12-12T16:06:59.946Z,73.79
2022-12-12T16:08:00.022Z,74.04
2022-12-12T16:08:59.931Z,74.35
2022-12-12T16:09:59.920Z,74.45
2022-12-12T16:11:01.909Z,74.35
2022-12-12T16:11:59.900Z,74.70
2022-12-12T16:12:59.890Z,75.01
2022-12-12T16:14:01.909Z,75.32
2022-12-12T16:14:59.857Z,75.42
2022-12-12T16:15:59.884Z,75.42
2022-12-12T16:16:59.839Z,75.50
2022-12-12T16:17:59.830Z,75.39
2022-12-12T16:18:59.815Z,75.39
2022-12-12T16:19:59.807Z,75.50
2022-12-12T16:20:59.795Z,75.39
2022-12-12T16:21:59.785Z,75.39
2022-12-12T16:22:59.775Z,75.50
2022-12-12T16:23:59.778Z,75.60
2022-12-12T16:24:59.744Z,75.50
2022-12-12T16:25:59.732Z,75.50
2022-12-12T16:26:59.727Z,75.46
2022-12-12T16:28:01.708Z,75.46
2022-12-12T16:28:59.708Z,75.36
2022-12-12T16:30:01.814Z,75.25
2022-12-12T16:30:59.681Z,75.29
2022-12-12T16:31:59.671Z,75.29
2022-12-12T16:33:01.661Z,75.50
2022-12-12T16:34:01.641Z,75.50
2022-12-12T16:35:01.662Z,75.39
2022-12-12T16:36:01.624Z,75.36
2022-12-12T16:36:59.608Z,75.29
2022-12-12T16:37:59.604Z,75.39
2022-12-12T16:38:59.585Z,75.39
2022-12-12T16:39:59.598Z,75.39
2022-12-12T16:40:59.568Z,75.60
2022-12-12T16:41:59.551Z,75.50